Grand Rapids, MI (49502)

1:23 AM EDT on September 04, 2015 (GMT -0400)
Fisk Lake | | Change Station
CLOSE
Current Station
Personal Weather Station
Location: Grand Rapids, MI
Elevation: 741 ft
Nearby Weather Stations
Active Advisory: Dense Fog Advisory

Elev 741 ft 42.95 °N, 85.62 °W | Updated 35 seconds ago

Partly Cloudy
Partly Cloudy
68.4 °F
Feels Like 68.4 °F
N
2.0
Wind Variable Wind from West
Gusts 4.0 mph

Today
High -- | Low -- °F
--% Chance of Precip.
Yesterday
High -- | Low -- °F
Precip. -- in
7:10 AM 8:12 PM
Waning Gibbous, 63% visible
Pressure 29.92 in
Visibility 9.0 miles
Clouds Clear
Dew Point 67 °F
Humidity 95%
Rainfall 0.00 in
Snow Depth Not available.
UV 0 out of 12
Pollen 9.10 out of 12
Air Quality Not available.
Flu Activity Not available.
METAR KGRR 040453Z AUTO 25006KT 9SM CLR 20/19 A2993 RMK AO2 SLP130 T02000189 402830200
Pressure 29.92 in
Visibility 9.0 miles
Clouds Clear
Dew Point 67 °F
Humidity 95%
Rainfall 0.00 in
Snow Depth Not available.
UV 0 out of 12
Pollen 9.10 out of 12
Air Quality Not available.
Flu Activity Not available.
METAR KGRR 040453Z AUTO 25006KT 9SM CLR 20/19 A2993 RMK AO2 SLP130 T02000189 402830200

10-Day Weather Forecast

×

Almanac

Astronomy

Sep. 04, 2015 Rise Set
Actual Time
Civil Twilight
Nautical Twilight
Astronomical Twilight
Moon
Length of Visible Light
Length of Day
Tomorrow will be .
, % of the Moon is Illuminated

Today's Extremes

State Highs State Lows

Community

WunderPhotos

Upload Photos

1,852,129 photos uploaded!

WunderBlogs® & News

Nearby

Air Quality

  Air Quality AQ Index Pollutant
Not available.

Snow Depth

Station Depth Elevation

Earthquake Activity

City Distance Mag. Time & Date
Minimum magnitude displayed is 2.5.

Coastal Water Temperatures

Place Temperature

Stations

Nearby Weather Stations

Station Location Temp. Windchill Dew Point Humidity Wind Precip. Elev Updated Type
                   
Dense Fog Advisory
Statement as of 12:48 AM EDT on September 04, 2015

... Dense fog advisory in effect until 10 am EDT this morning...

The National Weather Service in Grand Rapids has issued a dense
fog advisory... which is in effect until 10 am EDT this morning.

Hazardous weather...

* dense fog is forming with visibilities less than a quarter mile
   and is expected to become more widespread early this morning.

Impacts...

* travel will be quite difficult in areas of dense fog.

* Visibilities near zero have already been reported in parts of
   Montcalm and Gratiot counties.

Precautionary/preparedness actions...

* if driving... slow down... use low beam headlights... and leave
plenty of distance ahead of you.

* Weather preparedness information is available on line at
   http://go.USA.Gov/5og.



Ebw/mjs